createdAt,value
2023-03-17T00:02:05.041Z,61.84
2023-03-17T00:04:33.566Z,62.78
2023-03-17T00:07:01.491Z,64.68
2023-03-17T00:09:29.260Z,65.72
2023-03-17T00:11:57.102Z,65.16
2023-03-17T00:14:24.989Z,64.81
2023-03-17T00:16:53.318Z,64.07
2023-03-17T00:19:33.127Z,63.10
2023-03-17T00:22:01.638Z,62.41
2023-03-17T00:24:31.210Z,61.50
2023-03-17T00:26:59.823Z,61.17
2023-03-17T00:29:28.107Z,61.11
2023-03-17T00:31:57.858Z,60.31
2023-03-17T00:34:25.763Z,59.04
2023-03-17T00:36:53.629Z,57.06
2023-03-17T00:39:25.662Z,56.98
2023-03-17T00:41:55.617Z,57.42
2023-03-17T00:44:24.301Z,58.01
2023-03-17T00:46:54.180Z,58.58
2023-03-17T00:49:24.852Z,59.15
2023-03-17T00:51:52.804Z,59.69
2023-03-17T00:54:23.394Z,60.33
2023-03-17T00:56:52.727Z,60.84
2023-03-17T00:59:30.117Z,61.45
2023-03-17T01:01:58.212Z,61.91
2023-03-17T01:04:26.247Z,63.08
2023-03-17T01:06:54.602Z,65.54
2023-03-17T01:09:27.071Z,66.17
2023-03-17T01:11:55.925Z,65.99
2023-03-17T01:14:25.013Z,65.52
2023-03-17T01:16:53.345Z,64.68
2023-03-17T01:19:22.159Z,64.28
2023-03-17T01:21:50.336Z,63.66
2023-03-17T01:24:18.786Z,63.09
2023-03-17T01:26:47.192Z,62.59
2023-03-17T01:29:16.613Z,62.26
2023-03-17T01:31:46.317Z,61.76
2023-03-17T01:34:14.250Z,61.35
2023-03-17T01:36:43.938Z,60.92
2023-03-17T01:39:13.003Z,60.37
2023-03-17T01:41:41.029Z,58.77
2023-03-17T01:44:17.009Z,57.13
2023-03-17T01:46:47.571Z,56.99
2023-03-17T01:49:30.440Z,57.34
2023-03-17T01:52:04.571Z,57.94
2023-03-17T01:54:50.550Z,58.71
2023-03-17T01:57:21.510Z,59.34
2023-03-17T01:59:53.121Z,60.00
2023-03-17T02:02:26.177Z,60.56
2023-03-17T02:04:54.433Z,61.29
2023-03-17T02:07:24.512Z,61.92
2023-03-17T02:09:53.699Z,63.16
2023-03-17T02:12:24.028Z,65.55
2023-03-17T02:14:52.930Z,66.10
2023-03-17T02:17:23.107Z,65.79
2023-03-17T02:19:51.988Z,65.49
2023-03-17T02:22:20.610Z,64.75
2023-03-17T02:24:53.106Z,64.43
2023-03-17T02:27:31.238Z,63.89
2023-03-17T02:29:59.907Z,63.32
2023-03-17T02:32:27.793Z,62.31
2023-03-17T02:34:56.586Z,61.93
2023-03-17T02:37:24.551Z,61.55
2023-03-17T02:39:53.901Z,61.10
2023-03-17T02:42:22.224Z,60.87
2023-03-17T02:44:50.772Z,60.80
2023-03-17T02:47:21.710Z,60.57
2023-03-17T02:49:50.223Z,59.49
2023-03-17T02:52:18.040Z,57.45
2023-03-17T02:54:45.867Z,57.16
2023-03-17T02:57:13.679Z,57.51
2023-03-17T02:59:41.743Z,58.06
2023-03-17T03:02:10.091Z,58.65
2023-03-17T03:04:38.093Z,59.32
2023-03-17T03:07:06.226Z,59.94
2023-03-17T03:09:34.462Z,60.58
2023-03-17T03:12:02.901Z,61.10
2023-03-17T03:14:32.581Z,61.73
2023-03-17T03:17:00.486Z,63.00
2023-03-17T03:19:28.467Z,65.57
2023-03-17T03:21:56.887Z,66.20
2023-03-17T03:24:24.716Z,65.83
2023-03-17T03:26:52.683Z,65.26
2023-03-17T03:29:20.757Z,64.67
2023-03-17T03:31:48.938Z,64.25
2023-03-17T03:34:16.797Z,63.61
2023-03-17T03:36:44.812Z,62.94
2023-03-17T03:39:14.517Z,62.64
2023-03-17T03:41:42.559Z,62.25
2023-03-17T03:44:10.707Z,61.76
2023-03-17T03:46:38.534Z,61.41
2023-03-17T03:49:06.489Z,61.07
2023-03-17T03:51:34.423Z,60.86
2023-03-17T03:54:02.329Z,60.56
2023-03-17T03:56:30.381Z,59.42
2023-03-17T03:58:58.195Z,57.27
2023-03-17T04:01:26.036Z,56.99
2023-03-17T04:03:53.878Z,57.34
2023-03-17T04:06:21.812Z,58.05
2023-03-17T04:08:49.883Z,58.73
2023-03-17T04:11:18.071Z,59.35
2023-03-17T04:13:45.915Z,60.21
2023-03-17T04:16:13.831Z,60.93
2023-03-17T04:18:41.738Z,62.35
2023-03-17T04:21:09.691Z,64.66
2023-03-17T04:23:38.041Z,65.49
2023-03-17T04:26:06.041Z,64.86
2023-03-17T04:28:33.888Z,65.03
2023-03-17T04:31:02.012Z,64.79
2023-03-17T04:33:29.874Z,64.20
2023-03-17T04:35:58.680Z,63.86
2023-03-17T04:38:26.863Z,63.51
2023-03-17T04:40:54.895Z,63.13
2023-03-17T04:43:22.690Z,62.95
2023-03-17T04:45:50.914Z,62.47
2023-03-17T04:48:18.724Z,61.97
2023-03-17T04:50:48.025Z,61.53
2023-03-17T04:53:15.980Z,61.44
2023-03-17T04:55:44.281Z,61.34
2023-03-17T04:58:21.091Z,61.23
2023-03-17T05:00:56.201Z,60.96
2023-03-17T05:03:27.699Z,60.79
2023-03-17T05:05:59.646Z,60.00
2023-03-17T05:08:28.609Z,59.15
2023-03-17T05:10:58.491Z,57.56
2023-03-17T05:13:27.332Z,57.55
2023-03-17T05:15:56.480Z,57.96
2023-03-17T05:18:25.734Z,58.48
2023-03-17T05:20:53.674Z,59.24
2023-03-17T05:23:23.032Z,59.96
2023-03-17T05:25:51.236Z,60.73
2023-03-17T05:28:22.599Z,61.55
2023-03-17T05:30:50.814Z,62.64
2023-03-17T05:33:19.312Z,64.88
2023-03-17T05:35:47.668Z,65.52
2023-03-17T05:38:16.147Z,65.27
2023-03-17T05:40:44.877Z,65.05
2023-03-17T05:43:14.331Z,64.57
2023-03-17T05:45:42.491Z,64.07
2023-03-17T05:48:12.485Z,63.68
2023-03-17T05:50:41.872Z,63.18
2023-03-17T05:53:10.812Z,62.35
2023-03-17T05:55:39.126Z,62.16
2023-03-17T05:58:08.016Z,61.85
2023-03-17T06:00:37.813Z,61.36
2023-03-17T06:03:06.545Z,60.81
2023-03-17T06:05:35.722Z,60.41
2023-03-17T06:08:05.829Z,60.21
2023-03-17T06:10:34.152Z,59.34
2023-03-17T06:13:03.949Z,57.40
2023-03-17T06:15:34.068Z,57.31
2023-03-17T06:18:05.377Z,57.97
2023-03-17T06:20:34.191Z,58.54
2023-03-17T06:23:05.307Z,59.25
2023-03-17T06:25:35.956Z,59.94
2023-03-17T06:28:05.741Z,60.68
2023-03-17T06:30:38.169Z,61.37
2023-03-17T06:33:08.725Z,62.80
2023-03-17T06:35:37.450Z,65.16
2023-03-17T06:38:05.511Z,65.68
2023-03-17T06:40:34.271Z,64.92
2023-03-17T06:43:03.194Z,64.09
2023-03-17T06:45:33.217Z,64.03
2023-03-17T06:48:02.486Z,63.40
2023-03-17T06:50:30.504Z,63.21
2023-03-17T06:52:58.450Z,62.26
2023-03-17T06:55:27.565Z,61.93
2023-03-17T06:57:55.717Z,61.19
2023-03-17T07:00:23.969Z,61.52
2023-03-17T07:02:52.750Z,61.26
2023-03-17T07:05:20.831Z,60.71
2023-03-17T07:07:49.725Z,58.99
2023-03-17T07:10:18.464Z,57.81
2023-03-17T07:12:46.403Z,58.38
2023-03-17T07:15:14.408Z,58.85
2023-03-17T07:17:42.738Z,60.37
2023-03-17T07:20:11.924Z,61.00
2023-03-17T07:22:41.355Z,61.74
2023-03-17T07:25:11.055Z,63.36
2023-03-17T07:27:39.101Z,64.73
2023-03-17T07:30:08.322Z,64.86
2023-03-17T07:32:36.449Z,64.05
2023-03-17T07:35:05.813Z,63.53
2023-03-17T07:37:34.054Z,62.88
2023-03-17T07:40:02.353Z,62.07
2023-03-17T07:42:30.220Z,61.52
2023-03-17T07:44:58.298Z,61.40
2023-03-17T07:47:26.245Z,60.67
2023-03-17T07:49:54.966Z,60.10
2023-03-17T07:52:22.819Z,59.24
2023-03-17T07:54:52.312Z,58.41
2023-03-17T07:57:20.260Z,57.84
2023-03-17T07:59:48.230Z,58.06
2023-03-17T08:02:17.811Z,60.06
2023-03-17T08:04:46.065Z,60.38
2023-03-17T08:07:15.690Z,60.48
2023-03-17T08:09:43.720Z,61.12
2023-03-17T08:12:11.975Z,63.44
2023-03-17T08:14:41.504Z,63.31
2023-03-17T08:17:10.640Z,62.25
2023-03-17T08:19:38.658Z,61.15
2023-03-17T08:22:06.961Z,59.65
2023-03-17T08:24:35.466Z,58.02
2023-03-17T08:27:04.214Z,56.92
2023-03-17T08:29:32.165Z,55.30
2023-03-17T08:32:00.032Z,57.64
2023-03-17T08:34:28.447Z,57.90
2023-03-17T08:36:56.802Z,57.01
2023-03-17T08:39:24.628Z,59.68
2023-03-17T08:41:53.050Z,59.85
2023-03-17T08:44:22.014Z,58.66
2023-03-17T08:46:51.479Z,59.83
2023-03-17T08:49:19.397Z,59.12
2023-03-17T08:51:47.674Z,59.38
2023-03-17T08:54:15.985Z,60.22
2023-03-17T08:56:43.831Z,60.59
2023-03-17T08:59:12.597Z,58.64
2023-03-17T09:01:40.508Z,57.59
2023-03-17T09:04:09.149Z,57.47
2023-03-17T09:06:38.812Z,57.35
2023-03-17T09:09:07.749Z,57.53
2023-03-17T09:11:35.575Z,58.15
2023-03-17T09:14:03.813Z,57.91
2023-03-17T09:16:34.322Z,57.57
2023-03-17T09:19:03.924Z,57.93
2023-03-17T09:21:32.117Z,58.13
2023-03-17T09:24:02.462Z,58.28
2023-03-17T09:26:30.695Z,58.26
2023-03-17T09:28:58.681Z,57.31
2023-03-17T09:31:26.820Z,58.24
2023-03-17T09:33:55.121Z,58.28
2023-03-17T09:36:23.706Z,57.77
2023-03-17T09:38:52.384Z,56.98
2023-03-17T09:41:30.231Z,57.54
2023-03-17T09:44:23.131Z,58.52
2023-03-17T09:47:04.940Z,57.52
2023-03-17T09:49:38.760Z,57.27
2023-03-17T09:52:13.482Z,56.18
2023-03-17T09:54:42.250Z,56.18
2023-03-17T09:57:19.299Z,56.24
2023-03-17T09:59:53.620Z,56.74
2023-03-17T10:02:24.479Z,55.59
2023-03-17T10:04:52.619Z,56.35
2023-03-17T10:07:39.085Z,55.08
2023-03-17T10:10:28.099Z,55.42
2023-03-17T10:13:07.002Z,55.77
2023-03-17T10:15:42.221Z,55.24
2023-03-17T10:18:16.727Z,54.54
2023-03-17T10:20:52.240Z,53.16
2023-03-17T10:23:36.311Z,53.66
2023-03-17T10:26:32.903Z,54.04
2023-03-17T10:29:04.386Z,52.97
2023-03-17T10:31:35.582Z,53.39
2023-03-17T10:34:17.745Z,53.81
2023-03-17T10:36:53.787Z,53.20
2023-03-17T10:39:24.776Z,52.53
2023-03-17T10:42:09.254Z,52.39
2023-03-17T10:45:01.416Z,51.50
2023-03-17T10:47:33.401Z,49.18
2023-03-17T10:50:21.112Z,52.09
2023-03-17T10:52:57.909Z,51.69
2023-03-17T10:55:28.221Z,51.36
2023-03-17T10:58:15.388Z,51.32
2023-03-17T11:00:57.596Z,51.22
2023-03-17T11:03:29.422Z,51.21
2023-03-17T11:06:10.253Z,51.07
2023-03-17T11:08:51.114Z,50.87
2023-03-17T11:11:37.906Z,50.70
2023-03-17T11:14:14.276Z,49.11
2023-03-17T11:17:16.718Z,49.75
2023-03-17T11:20:11.977Z,49.42
2023-03-17T11:22:43.072Z,49.86
2023-03-17T11:25:17.456Z,49.53
2023-03-17T11:27:51.401Z,49.36
2023-03-17T11:31:09.523Z,49.08
2023-03-17T11:33:55.227Z,49.70
2023-03-17T11:36:45.355Z,47.01
2023-03-17T11:39:24.323Z,48.65
2023-03-17T11:41:58.331Z,48.12
2023-03-17T11:44:40.535Z,46.79
2023-03-17T11:47:27.085Z,48.28
2023-03-17T11:50:08.361Z,47.13
2023-03-17T11:52:48.512Z,47.19
2023-03-17T11:55:22.504Z,46.27
2023-03-17T11:58:00.194Z,46.62
2023-03-17T12:00:43.816Z,46.49
2023-03-17T12:03:22.093Z,46.13
2023-03-17T12:05:55.819Z,46.89
2023-03-17T12:08:36.086Z,46.70
2023-03-17T12:11:10.685Z,46.28
2023-03-17T12:13:45.539Z,46.48
2023-03-17T12:16:22.750Z,45.20
2023-03-17T12:19:16.617Z,45.75
2023-03-17T12:22:19.062Z,46.13
2023-03-17T12:25:16.643Z,46.30
2023-03-17T12:27:54.531Z,46.12
2023-03-17T12:30:33.233Z,45.85
2023-03-17T12:33:30.316Z,44.93
2023-03-17T12:36:00.754Z,45.44
2023-03-17T12:38:47.044Z,45.57
2023-03-17T12:41:33.690Z,45.46
2023-03-17T12:44:08.211Z,45.45
2023-03-17T12:47:04.604Z,44.68
2023-03-17T12:50:20.074Z,44.45
2023-03-17T12:53:09.947Z,44.53
2023-03-17T12:55:38.816Z,44.61
2023-03-17T12:58:27.287Z,44.31
2023-03-17T13:01:32.415Z,44.40
2023-03-17T13:04:05.781Z,43.77
2023-03-17T13:06:43.036Z,43.97
2023-03-17T13:09:32.982Z,43.67
2023-03-17T13:12:02.613Z,42.93
2023-03-17T13:14:44.529Z,42.89
2023-03-17T13:17:23.971Z,42.83
2023-03-17T13:19:59.408Z,42.60
2023-03-17T13:22:37.761Z,42.55
2023-03-17T13:25:32.402Z,41.88
2023-03-17T13:28:12.804Z,42.89
2023-03-17T13:30:41.340Z,43.06
2023-03-17T13:33:12.437Z,42.49
2023-03-17T13:35:53.600Z,41.73
2023-03-17T13:39:15.070Z,41.47
2023-03-17T13:42:17.636Z,41.97
2023-03-17T13:45:08.452Z,41.79
2023-03-17T13:47:40.293Z,42.31
2023-03-17T13:50:25.484Z,42.35
2023-03-17T13:53:01.757Z,42.26
2023-03-17T13:55:35.108Z,42.06
2023-03-17T13:58:11.592Z,40.72
2023-03-17T14:00:43.788Z,41.53
2023-03-17T14:03:23.224Z,41.60
2023-03-17T14:05:52.748Z,40.94
2023-03-17T14:08:33.866Z,41.05
2023-03-17T14:11:06.786Z,41.28
2023-03-17T14:13:40.615Z,40.89
2023-03-17T14:16:21.352Z,40.14
2023-03-17T14:18:54.018Z,40.89
2023-03-17T14:21:30.507Z,40.46
2023-03-17T14:24:01.541Z,40.80
2023-03-17T14:26:32.456Z,40.48
2023-03-17T14:29:04.917Z,40.72
2023-03-17T14:31:32.802Z,40.65
2023-03-17T14:34:01.521Z,40.71
2023-03-17T14:36:34.617Z,40.87
2023-03-17T14:39:02.608Z,40.86
2023-03-17T14:41:32.226Z,40.45
2023-03-17T14:44:02.102Z,40.74
2023-03-17T14:46:41.228Z,40.53
2023-03-17T14:49:20.985Z,39.92
2023-03-17T14:51:51.768Z,40.54
2023-03-17T14:54:26.791Z,40.40
2023-03-17T14:57:02.317Z,40.90
2023-03-17T14:59:53.618Z,40.79
2023-03-17T15:02:28.065Z,40.55
2023-03-17T15:04:59.504Z,40.83
2023-03-17T15:07:37.970Z,40.70
2023-03-17T15:10:17.208Z,40.35
2023-03-17T15:12:46.862Z,40.86
2023-03-17T15:15:27.188Z,40.62
2023-03-17T15:17:59.474Z,39.95
2023-03-17T15:20:31.680Z,40.21
2023-03-17T15:23:04.246Z,40.64
2023-03-17T15:25:37.526Z,40.62
2023-03-17T15:28:16.905Z,40.82
2023-03-17T15:30:48.390Z,40.32
2023-03-17T15:33:22.561Z,40.38
2023-03-17T15:35:51.187Z,40.81
2023-03-17T15:38:19.461Z,40.89
2023-03-17T15:40:47.703Z,40.98
2023-03-17T15:43:17.056Z,40.90
2023-03-17T15:45:45.984Z,39.47
2023-03-17T15:48:25.821Z,41.03
2023-03-17T15:50:56.891Z,41.09
2023-03-17T15:53:24.888Z,41.13
2023-03-17T15:55:53.465Z,41.09
2023-03-17T15:58:21.255Z,40.99
2023-03-17T16:00:59.266Z,40.73
2023-03-17T16:03:33.409Z,40.50
2023-03-17T16:06:04.376Z,40.91
2023-03-17T16:08:32.173Z,41.43
2023-03-17T16:11:00.310Z,41.65
2023-03-17T16:13:28.118Z,41.58
2023-03-17T16:15:59.111Z,41.49
2023-03-17T16:18:34.255Z,41.76
2023-03-17T16:21:04.093Z,42.07
2023-03-17T16:23:36.973Z,42.20
2023-03-17T16:26:14.815Z,42.48
2023-03-17T16:28:47.790Z,42.75
2023-03-17T16:31:25.653Z,43.18
2023-03-17T16:33:54.531Z,43.34
2023-03-17T16:36:24.452Z,43.62
2023-03-17T16:38:52.876Z,43.93
2023-03-17T16:41:24.661Z,44.12
2023-03-17T16:43:58.934Z,44.27
2023-03-17T16:46:34.051Z,44.47
2023-03-17T16:49:04.211Z,44.79
2023-03-17T16:51:32.027Z,44.98
2023-03-17T16:53:59.843Z,45.77
2023-03-17T16:56:28.182Z,45.59
2023-03-17T16:58:56.163Z,45.93
2023-03-17T17:01:27.116Z,46.21
2023-03-17T17:03:56.064Z,46.34
2023-03-17T17:06:24.581Z,46.35
2023-03-17T17:08:52.394Z,46.63
2023-03-17T17:11:20.866Z,46.82
2023-03-17T17:13:49.472Z,46.96
2023-03-17T17:16:30.727Z,47.16
2023-03-17T17:18:59.955Z,47.37
2023-03-17T17:21:28.464Z,47.59
2023-03-17T17:23:57.136Z,47.81
2023-03-17T17:26:24.930Z,47.90
2023-03-17T17:28:53.156Z,48.05
2023-03-17T17:31:21.155Z,48.36
2023-03-17T17:33:49.119Z,48.32
2023-03-17T17:36:17.913Z,48.54
2023-03-17T17:38:46.464Z,48.83
2023-03-17T17:41:14.365Z,49.11
2023-03-17T17:43:42.365Z,49.77
2023-03-17T17:46:12.715Z,49.59
2023-03-17T17:48:41.211Z,49.67
2023-03-17T17:51:09.255Z,49.73
2023-03-17T17:53:37.177Z,50.06
2023-03-17T17:56:05.219Z,50.26
2023-03-17T17:58:33.329Z,50.59
2023-03-17T18:01:01.909Z,50.80
2023-03-17T18:03:32.053Z,50.37
2023-03-17T18:06:01.021Z,50.39
2023-03-17T18:08:29.155Z,50.93
2023-03-17T18:10:57.429Z,51.01
2023-03-17T18:13:25.816Z,51.34
2023-03-17T18:15:53.717Z,51.04
2023-03-17T18:18:21.746Z,50.82
2023-03-17T18:20:49.797Z,50.79
2023-03-17T18:23:17.829Z,50.89
2023-03-17T18:25:45.839Z,51.09
2023-03-17T18:28:13.765Z,51.13
2023-03-17T18:30:43.427Z,51.17
2023-03-17T18:33:16.523Z,51.59
2023-03-17T18:35:47.385Z,51.73
2023-03-17T18:38:15.535Z,51.84
2023-03-17T18:40:44.132Z,51.72
2023-03-17T18:43:12.031Z,51.82
2023-03-17T18:45:39.993Z,51.74
2023-03-17T18:48:07.947Z,51.96
2023-03-17T18:50:37.173Z,51.89
2023-03-17T18:53:05.165Z,51.89
2023-03-17T18:55:33.162Z,52.33
2023-03-17T18:58:01.116Z,52.26
2023-03-17T19:00:29.181Z,52.38
2023-03-17T19:02:57.251Z,52.50
2023-03-17T19:05:25.740Z,52.79
2023-03-17T19:07:53.618Z,53.33
2023-03-17T19:10:21.986Z,53.50
2023-03-17T19:12:50.768Z,53.15
2023-03-17T19:15:19.680Z,53.21
2023-03-17T19:17:47.833Z,53.57
2023-03-17T19:20:15.665Z,53.75
2023-03-17T19:22:43.490Z,53.78
2023-03-17T19:25:11.591Z,53.87
2023-03-17T19:27:40.381Z,54.16
2023-03-17T19:30:09.414Z,53.84
2023-03-17T19:32:37.352Z,54.13
2023-03-17T19:35:07.608Z,54.51
2023-03-17T19:37:36.595Z,54.34
2023-03-17T19:40:08.182Z,54.60
2023-03-17T19:42:36.683Z,55.02
2023-03-17T19:45:05.431Z,54.85
2023-03-17T19:47:33.658Z,55.00
2023-03-17T19:50:01.888Z,55.02
2023-03-17T19:52:29.842Z,55.10
2023-03-17T19:54:58.014Z,55.17
2023-03-17T19:57:27.180Z,55.44
2023-03-17T19:59:55.181Z,55.73
2023-03-17T20:02:23.047Z,55.88
2023-03-17T20:04:51.552Z,55.45
2023-03-17T20:07:19.527Z,55.45
2023-03-17T20:09:48.765Z,55.64
2023-03-17T20:12:17.152Z,56.26
2023-03-17T20:14:45.043Z,56.08
2023-03-17T20:17:14.643Z,56.18
2023-03-17T20:19:42.408Z,56.28
2023-03-17T20:22:11.037Z,56.75
2023-03-17T20:24:38.865Z,56.54
2023-03-17T20:27:08.071Z,56.48
2023-03-17T20:29:36.584Z,56.33
2023-03-17T20:32:04.819Z,56.51
2023-03-17T20:34:35.010Z,56.44
2023-03-17T20:37:02.912Z,56.50
2023-03-17T20:39:32.524Z,56.52
2023-03-17T20:42:01.764Z,56.54
2023-03-17T20:44:30.417Z,56.69
2023-03-17T20:46:58.309Z,56.79
2023-03-17T20:49:26.760Z,57.27
2023-03-17T20:51:54.590Z,57.06
2023-03-17T20:54:23.389Z,56.99
2023-03-17T20:56:56.802Z,56.83
2023-03-17T20:59:24.860Z,56.99
2023-03-17T21:01:53.027Z,57.02
2023-03-17T21:04:21.405Z,56.86
2023-03-17T21:06:49.791Z,56.92
2023-03-17T21:09:17.909Z,56.99
2023-03-17T21:11:46.033Z,57.47
2023-03-17T21:14:13.867Z,57.20
2023-03-17T21:16:42.900Z,57.04
2023-03-17T21:19:14.582Z,57.44
2023-03-17T21:21:43.195Z,57.18
2023-03-17T21:24:24.388Z,57.00
2023-03-17T21:26:52.311Z,56.99
2023-03-17T21:29:21.480Z,56.96
2023-03-17T21:31:49.755Z,57.20
2023-03-17T21:34:18.029Z,57.30
2023-03-17T21:36:46.142Z,57.05
2023-03-17T21:39:14.097Z,57.00
2023-03-17T21:41:41.994Z,57.08
2023-03-17T21:44:12.060Z,57.51
2023-03-17T21:46:39.894Z,57.18
2023-03-17T21:49:08.181Z,57.20
2023-03-17T21:51:36.284Z,57.23
2023-03-17T21:54:05.577Z,57.19
2023-03-17T21:56:33.669Z,57.23
2023-03-17T21:59:01.486Z,57.25
2023-03-17T22:01:29.700Z,57.39
2023-03-17T22:03:57.952Z,57.37
2023-03-17T22:06:27.575Z,57.57
2023-03-17T22:08:55.965Z,57.52
2023-03-17T22:11:24.100Z,57.45
2023-03-17T22:13:52.341Z,57.35
2023-03-17T22:16:21.652Z,57.30
2023-03-17T22:18:49.516Z,57.47
2023-03-17T22:21:18.140Z,57.53
2023-03-17T22:23:46.417Z,57.42
2023-03-17T22:26:17.141Z,57.44
2023-03-17T22:28:47.286Z,57.46
2023-03-17T22:31:23.756Z,57.66
2023-03-17T22:33:55.046Z,57.62
2023-03-17T22:36:24.920Z,57.58
2023-03-17T22:38:53.442Z,57.63
2023-03-17T22:41:23.943Z,57.69
2023-03-17T22:43:52.008Z,57.67
2023-03-17T22:46:20.865Z,57.64
2023-03-17T22:48:49.821Z,58.02
2023-03-17T22:51:21.442Z,57.90
2023-03-17T22:53:50.394Z,57.71
2023-03-17T22:56:19.248Z,57.97
2023-03-17T22:58:47.910Z,57.70
2023-03-17T23:01:17.399Z,57.74
2023-03-17T23:03:45.668Z,57.69
2023-03-17T23:06:14.665Z,57.77
2023-03-17T23:08:44.102Z,57.91
2023-03-17T23:11:19.196Z,57.71
2023-03-17T23:13:48.085Z,57.55
2023-03-17T23:16:17.355Z,57.51
2023-03-17T23:18:46.757Z,57.52
2023-03-17T23:21:21.943Z,57.50
2023-03-17T23:23:49.791Z,57.55
2023-03-17T23:26:17.752Z,57.70
2023-03-17T23:28:46.642Z,57.73
2023-03-17T23:31:16.774Z,57.51
2023-03-17T23:33:46.911Z,57.56
2023-03-17T23:36:17.097Z,57.67
2023-03-17T23:38:45.680Z,57.59
2023-03-17T23:41:15.277Z,57.47
2023-03-17T23:43:44.182Z,57.48
2023-03-17T23:46:13.983Z,57.45
2023-03-17T23:48:42.993Z,57.46
2023-03-17T23:51:12.711Z,57.40
2023-03-17T23:53:41.865Z,57.34
2023-03-17T23:56:11.596Z,57.35
2023-03-17T23:58:42.540Z,57.32
